Time;durP1;ratioP1;P1;durP2;ratioP2;P2;SDS_P1;SDS_P2;PMS_P1;PMS_P2;Temp;Humidity;BMP_temperature;BMP_pressure;BME280_temperature;BME280_humidity;BME280_pressure;Samples;Min_cycle;Max_cycle;Signal;HPM_P1;HPM_P2
2022/04/07 00:00:43;;;;;;;9.68;6.35;;;;;;;;;;5077516;28;20203;-64
2022/04/07 00:03:10;;;;;;;10.40;7.38;;;;;;;;;;5076521;28;20205;-64
2022/04/07 00:05:37;;;;;;;8.60;6.72;;;;;;;;;;5076174;28;20224;-64
2022/04/07 00:08:03;;;;;;;7.68;6.35;;;;;;;;;;5076119;28;20197;-64
2022/04/07 00:10:30;;;;;;;8.70;6.57;;;;;;;;;;5077066;28;20209;-64
2022/04/07 00:12:56;;;;;;;6.32;5.45;;;;;;;;;;5077108;28;20228;-65
2022/04/07 00:15:23;;;;;;;5.43;4.97;;;;;;;;;;5076273;28;20236;-65
2022/04/07 00:17:51;;;;;;;7.47;5.47;;;;;;;;;;5076976;28;20193;-65
2022/04/07 00:20:18;;;;;;;6.97;5.00;;;;;;;;;;5076651;28;20232;-65
2022/04/07 00:22:45;;;;;;;7.10;4.90;;;;;;;;;;5077101;28;20202;-65
2022/04/07 00:25:13;;;;;;;5.82;5.20;;;;;;;;;;5076796;28;20224;-65
2022/04/07 00:27:40;;;;;;;4.22;3.83;;;;;;;;;;5076767;28;20199;-65
2022/04/07 00:30:09;;;;;;;4.60;4.20;;;;;;;;;;5076730;28;20244;-65
2022/04/07 00:32:40;;;;;;;5.38;4.38;;;;;;;;;;5076302;28;20181;-65
2022/04/07 00:35:09;;;;;;;4.68;4.07;;;;;;;;;;5075764;28;20530;-65
2022/04/07 00:37:35;;;;;;;6.20;4.43;;;;;;;;;;5076392;28;20276;-65
2022/04/07 00:40:02;;;;;;;5.07;4.47;;;;;;;;;;5076444;28;20662;-65
2022/04/07 00:42:29;;;;;;;4.93;4.20;;;;;;;;;;5076360;28;20220;-65
2022/04/07 00:44:55;;;;;;;5.00;4.50;;;;;;;;;;5076811;28;20213;-65
2022/04/07 00:47:24;;;;;;;6.47;4.18;;;;;;;;;;5076207;28;20195;-65
2022/04/07 00:49:50;;;;;;;6.35;4.90;;;;;;;;;;5076294;28;20196;-65
2022/04/07 00:52:19;;;;;;;5.35;4.55;;;;;;;;;;5076564;28;20252;-65
2022/04/07 00:54:46;;;;;;;6.10;4.68;;;;;;;;;;5076246;28;20185;-65
2022/04/07 00:57:12;;;;;;;4.65;4.13;;;;;;;;;;5076415;28;20205;-65
2022/04/07 00:59:39;;;;;;;6.53;4.50;;;;;;;;;;5075650;28;20208;-65
2022/04/07 01:02:06;;;;;;;7.43;5.15;;;;;;;;;;5075981;28;20177;-65
2022/04/07 01:04:33;;;;;;;8.07;5.85;;;;;;;;;;5076449;28;20185;-65
2022/04/07 01:07:00;;;;;;;7.43;5.38;;;;;;;;;;5076208;28;20189;-65
2022/04/07 01:09:29;;;;;;;5.00;4.50;;;;;;;;;;5076171;28;20195;-65
2022/04/07 01:11:56;;;;;;;5.93;4.70;;;;;;;;;;5076240;28;20246;-65
2022/04/07 01:14:22;;;;;;;6.68;5.30;;;;;;;;;;5075624;28;20296;-65
2022/04/07 01:16:49;;;;;;;5.65;4.85;;;;;;;;;;5076009;28;20264;-65
2022/04/07 01:19:15;;;;;;;7.22;5.10;;;;;;;;;;5075950;28;20181;-65
2022/04/07 01:21:42;;;;;;;7.07;5.65;;;;;;;;;;5076192;28;20193;-66
2022/04/07 01:24:10;;;;;;;7.15;5.15;;;;;;;;;;5074941;28;20606;-65
2022/04/07 01:26:39;;;;;;;7.03;4.85;;;;;;;;;;5075732;28;20272;-65
2022/04/07 01:29:07;;;;;;;6.45;5.55;;;;;;;;;;5075472;28;20187;-65
2022/04/07 01:31:33;;;;;;;6.32;5.30;;;;;;;;;;5075601;28;20232;-65
2022/04/07 01:34:00;;;;;;;5.97;5.07;;;;;;;;;;5075126;28;20235;-65
2022/04/07 01:36:29;;;;;;;7.03;5.13;;;;;;;;;;5074550;28;20716;-65
2022/04/07 01:38:55;;;;;;;6.65;5.57;;;;;;;;;;5075797;28;20189;-66
2022/04/07 01:41:22;;;;;;;8.18;6.18;;;;;;;;;;5074757;28;20199;-65
2022/04/07 01:43:51;;;;;;;8.15;6.90;;;;;;;;;;5075445;28;20189;-65
2022/04/07 01:46:19;;;;;;;9.98;6.70;;;;;;;;;;5074694;28;20201;-65
2022/04/07 01:48:47;;;;;;;7.47;5.95;;;;;;;;;;5075472;28;20247;-65
2022/04/07 01:51:14;;;;;;;6.95;6.28;;;;;;;;;;5074731;28;20213;-65
2022/04/07 01:53:41;;;;;;;6.82;5.53;;;;;;;;;;5074719;28;20204;-64
2022/04/07 01:56:08;;;;;;;8.05;5.80;;;;;;;;;;5075676;28;20199;-64
2022/04/07 01:58:35;;;;;;;7.65;5.50;;;;;;;;;;5074306;28;20201;-64
2022/04/07 02:01:03;;;;;;;7.15;6.05;;;;;;;;;;5075383;28;20230;-64
2022/04/07 02:03:30;;;;;;;7.70;5.15;;;;;;;;;;5075285;28;20212;-64
2022/04/07 02:06:09;;;;;;;6.30;4.65;;;;;;;;;;5075305;28;20271;-65
2022/04/07 02:08:36;;;;;;;4.47;4.03;;;;;;;;;;5074789;28;20242;-65
2022/04/07 02:11:03;;;;;;;4.80;4.20;;;;;;;;;;5074246;28;20295;-65
2022/04/07 02:13:32;;;;;;;9.15;6.05;;;;;;;;;;5075251;28;20200;-65
2022/04/07 02:15:58;;;;;;;9.88;6.97;;;;;;;;;;5074774;28;20209;-65
2022/04/07 02:18:26;;;;;;;8.35;6.57;;;;;;;;;;5075286;28;20276;-65
2022/04/07 02:20:53;;;;;;;9.20;6.00;;;;;;;;;;5074996;28;20182;-65
2022/04/07 02:23:19;;;;;;;9.07;5.80;;;;;;;;;;5075270;28;20280;-65
2022/04/07 02:25:46;;;;;;;6.90;4.85;;;;;;;;;;5075256;28;20195;-65
2022/04/07 02:28:13;;;;;;;5.10;4.50;;;;;;;;;;5074906;28;20186;-65
2022/04/07 02:30:39;;;;;;;4.97;4.47;;;;;;;;;;5075092;28;20186;-65
2022/04/07 02:33:06;;;;;;;6.03;5.10;;;;;;;;;;5073990;28;20213;-65
2022/04/07 02:35:34;;;;;;;6.95;4.30;;;;;;;;;;5074743;28;20658;-65
2022/04/07 02:38:01;;;;;;;5.90;4.78;;;;;;;;;;5075168;28;20232;-65
2022/04/07 02:40:27;;;;;;;10.05;4.93;;;;;;;;;;5074333;28;20200;-65
2022/04/07 02:42:54;;;;;;;6.63;5.03;;;;;;;;;;5074303;28;20207;-65
2022/04/07 02:45:21;;;;;;;6.88;4.47;;;;;;;;;;5075159;28;20195;-65
2022/04/07 02:47:47;;;;;;;6.57;4.78;;;;;;;;;;5074542;28;20228;-65
2022/04/07 02:50:14;;;;;;;8.63;4.63;;;;;;;;;;5074618;28;20195;-65
2022/04/07 02:52:42;;;;;;;6.20;4.60;;;;;;;;;;5074196;28;20219;-65
2022/04/07 02:55:09;;;;;;;5.00;4.45;;;;;;;;;;5073811;28;20205;-65
2022/04/07 02:57:36;;;;;;;7.38;4.55;;;;;;;;;;5076630;28;20216;-65
2022/04/07 03:00:03;;;;;;;4.90;4.40;;;;;;;;;;5077520;28;20201;-65
2022/04/07 03:02:30;;;;;;;5.03;4.10;;;;;;;;;;5077762;28;20534;-65
2022/04/07 03:04:57;;;;;;;4.35;3.95;;;;;;;;;;5078638;28;20213;-65
2022/04/07 03:07:23;;;;;;;4.43;4.03;;;;;;;;;;5078236;28;20212;-65
2022/04/07 03:09:51;;;;;;;4.57;4.13;;;;;;;;;;5078550;28;20189;-65
2022/04/07 03:12:18;;;;;;;4.90;4.43;;;;;;;;;;5078657;28;20303;-65
2022/04/07 03:14:45;;;;;;;3.88;3.50;;;;;;;;;;5077591;28;20204;-65
2022/04/07 03:17:11;;;;;;;3.45;3.20;;;;;;;;;;5077393;28;20204;-65
2022/04/07 03:19:38;;;;;;;3.53;3.22;;;;;;;;;;5077573;28;20207;-65
2022/04/07 03:22:05;;;;;;;4.25;3.30;;;;;;;;;;5078050;28;20579;-65
2022/04/07 03:24:32;;;;;;;4.20;3.80;;;;;;;;;;5078125;28;20224;-65
2022/04/07 03:27:01;;;;;;;4.30;3.90;;;;;;;;;;5077906;28;20192;-65
2022/04/07 03:29:30;;;;;;;4.88;3.80;;;;;;;;;;5078136;28;20195;-65
2022/04/07 03:31:56;;;;;;;4.18;3.80;;;;;;;;;;5078230;28;20213;-65
2022/04/07 03:34:23;;;;;;;4.00;3.70;;;;;;;;;;5078294;28;20213;-65
2022/04/07 03:36:50;;;;;;;4.68;4.00;;;;;;;;;;5078142;28;20237;-65
2022/04/07 03:39:17;;;;;;;5.90;3.95;;;;;;;;;;5077102;28;20232;-65
2022/04/07 03:41:44;;;;;;;4.25;3.85;;;;;;;;;;5078568;28;20205;-65
2022/04/07 03:44:12;;;;;;;3.60;3.30;;;;;;;;;;5078080;28;20199;-65
2022/04/07 03:46:38;;;;;;;3.90;3.42;;;;;;;;;;5076968;28;20574;-65
2022/04/07 03:49:05;;;;;;;4.65;3.88;;;;;;;;;;5076969;28;20278;-65
2022/04/07 03:51:31;;;;;;;5.38;3.88;;;;;;;;;;5076700;28;20284;-65
2022/04/07 03:53:58;;;;;;;4.22;3.70;;;;;;;;;;5077443;28;20181;-65
2022/04/07 03:56:25;;;;;;;4.95;3.47;;;;;;;;;;5077808;28;20280;-65
2022/04/07 03:58:51;;;;;;;5.77;4.00;;;;;;;;;;5076386;28;20212;-65
2022/04/07 04:01:19;;;;;;;4.50;3.85;;;;;;;;;;5076382;28;20610;-65
2022/04/07 04:03:46;;;;;;;3.72;3.42;;;;;;;;;;5077258;28;20197;-65
2022/04/07 04:06:13;;;;;;;5.65;4.22;;;;;;;;;;5077400;28;20341;-65
2022/04/07 04:08:39;;;;;;;6.00;4.30;;;;;;;;;;5076823;28;20582;-65
2022/04/07 04:11:06;;;;;;;4.68;4.28;;;;;;;;;;5076266;28;20292;-65
2022/04/07 04:13:33;;;;;;;4.50;4.10;;;;;;;;;;5076312;28;20244;-65
2022/04/07 04:16:01;;;;;;;4.57;4.03;;;;;;;;;;5076590;28;20242;-65
2022/04/07 04:18:29;;;;;;;4.88;4.25;;;;;;;;;;5077062;28;20185;-65
2022/04/07 04:20:56;;;;;;;4.95;4.45;;;;;;;;;;5076496;28;20197;-65
2022/04/07 04:23:22;;;;;;;5.25;4.07;;;;;;;;;;5076113;28;20185;-65
2022/04/07 04:25:49;;;;;;;5.45;4.40;;;;;;;;;;5076669;28;20211;-65
2022/04/07 04:28:15;;;;;;;6.72;5.00;;;;;;;;;;5077259;28;20270;-65
2022/04/07 04:30:42;;;;;;;5.30;4.70;;;;;;;;;;5077567;28;20232;-66
2022/04/07 04:33:09;;;;;;;6.30;5.45;;;;;;;;;;5075967;28;20403;-65
2022/04/07 04:35:37;;;;;;;6.38;5.43;;;;;;;;;;5076525;28;20253;-65
2022/04/07 04:38:03;;;;;;;6.15;5.55;;;;;;;;;;5075900;28;20553;-65
2022/04/07 04:40:30;;;;;;;7.45;5.15;;;;;;;;;;5076227;28;20242;-65
2022/04/07 04:42:56;;;;;;;5.20;4.70;;;;;;;;;;5076527;28;20173;-65
2022/04/07 04:45:23;;;;;;;5.57;4.75;;;;;;;;;;5075869;28;20197;-65
2022/04/07 04:47:52;;;;;;;7.15;6.05;;;;;;;;;;5075871;28;20697;-65
2022/04/07 04:50:19;;;;;;;7.03;6.28;;;;;;;;;;5076163;28;20262;-65
2022/04/07 04:52:47;;;;;;;6.97;5.90;;;;;;;;;;5076213;28;20208;-65
2022/04/07 04:55:14;;;;;;;8.13;6.30;;;;;;;;;;5076370;28;20284;-65
2022/04/07 04:57:40;;;;;;;6.65;5.95;;;;;;;;;;5076021;28;20239;-65
2022/04/07 05:00:07;;;;;;;6.53;5.93;;;;;;;;;;5075498;28;20209;-64
2022/04/07 05:02:34;;;;;;;6.82;6.13;;;;;;;;;;5076602;28;20196;-65
2022/04/07 05:05:01;;;;;;;6.97;6.28;;;;;;;;;;5076377;28;20227;-65
2022/04/07 05:07:30;;;;;;;6.70;6.05;;;;;;;;;;5076418;28;20191;-65
2022/04/07 05:09:58;;;;;;;6.45;5.85;;;;;;;;;;5075895;28;20201;-65
2022/04/07 05:12:26;;;;;;;6.82;6.10;;;;;;;;;;5075831;28;20209;-65
2022/04/07 05:14:53;;;;;;;6.95;5.90;;;;;;;;;;5075847;28;20185;-65
2022/04/07 05:17:20;;;;;;;6.95;6.25;;;;;;;;;;5076000;28;20208;-67
2022/04/07 05:19:47;;;;;;;7.45;6.70;;;;;;;;;;5074831;28;20459;-70
2022/04/07 05:22:13;;;;;;;7.70;6.93;;;;;;;;;;5075163;28;20197;-68
2022/04/07 05:24:40;;;;;;;7.72;6.93;;;;;;;;;;5075984;28;20231;-72
2022/04/07 05:27:08;;;;;;;8.35;7.55;;;;;;;;;;5075980;28;20238;-67
2022/04/07 05:29:35;;;;;;;7.88;7.03;;;;;;;;;;5075211;28;20204;-66
2022/04/07 05:32:01;;;;;;;8.18;7.30;;;;;;;;;;5075426;28;20250;-66
2022/04/07 05:34:28;;;;;;;8.35;7.50;;;;;;;;;;5075925;28;20228;-65
2022/04/07 05:36:54;;;;;;;9.00;8.02;;;;;;;;;;5074765;28;20260;-65
2022/04/07 05:39:21;;;;;;;9.10;7.68;;;;;;;;;;5076180;28;20216;-66
2022/04/07 05:41:48;;;;;;;8.38;7.32;;;;;;;;;;5075439;28;20215;-65
2022/04/07 05:44:16;;;;;;;9.30;7.97;;;;;;;;;;5075747;28;20192;-65
2022/04/07 05:46:42;;;;;;;9.18;7.68;;;;;;;;;;5074835;28;20587;-65
2022/04/07 05:49:10;;;;;;;8.70;7.80;;;;;;;;;;5075018;28;20197;-66
2022/04/07 05:51:36;;;;;;;8.88;7.47;;;;;;;;;;5074783;28;20301;-66
2022/04/07 05:54:03;;;;;;;8.63;7.78;;;;;;;;;;5074376;28;20244;-67
2022/04/07 05:56:30;;;;;;;9.15;7.72;;;;;;;;;;5074736;28;20543;-67
2022/04/07 05:58:56;;;;;;;8.73;7.53;;;;;;;;;;5074777;28;20296;-66
2022/04/07 06:01:24;;;;;;;9.27;8.18;;;;;;;;;;5074536;28;20204;-66
2022/04/07 06:03:51;;;;;;;9.32;8.27;;;;;;;;;;5074749;28;20251;-66
2022/04/07 06:06:17;;;;;;;9.80;8.77;;;;;;;;;;5076441;28;20252;-66
2022/04/07 06:08:44;;;;;;;10.38;8.55;;;;;;;;;;5075630;28;20603;-66
2022/04/07 06:11:11;;;;;;;9.07;8.05;;;;;;;;;;5075115;28;20463;-67
2022/04/07 06:13:38;;;;;;;10.40;8.77;;;;;;;;;;5074482;28;20213;-67
2022/04/07 06:16:05;;;;;;;12.63;8.98;;;;;;;;;;5074288;28;20209;-67
2022/04/07 06:18:33;;;;;;;11.20;8.02;;;;;;;;;;5074865;28;20209;-67
2022/04/07 06:21:00;;;;;;;9.05;7.60;;;;;;;;;;5075359;28;20232;-66
2022/04/07 06:23:27;;;;;;;12.82;7.15;;;;;;;;;;5074983;28;20213;-66
2022/04/07 06:25:53;;;;;;;7.47;5.30;;;;;;;;;;5074708;28;20204;-71
2022/04/07 06:28:22;;;;;;;9.85;5.50;;;;;;;;;;5075133;28;20181;-65
2022/04/07 06:30:49;;;;;;;7.55;5.07;;;;;;;;;;5075220;28;20197;-65
2022/04/07 06:33:15;;;;;;;6.00;4.15;;;;;;;;;;5079173;28;20303;-65
2022/04/07 06:35:43;;;;;;;7.78;4.50;;;;;;;;;;5079549;28;20221;-66
2022/04/07 06:38:10;;;;;;;7.35;4.78;;;;;;;;;;5079606;28;20283;-65
2022/04/07 06:40:37;;;;;;;7.60;4.95;;;;;;;;;;5079231;28;20185;-65
2022/04/07 06:43:04;;;;;;;6.45;4.30;;;;;;;;;;5079091;28;20252;-65
2022/04/07 06:45:30;;;;;;;7.63;4.60;;;;;;;;;;5078745;28;20228;-65
2022/04/07 06:47:57;;;;;;;5.85;4.72;;;;;;;;;;5078189;28;20208;-65
2022/04/07 06:50:25;;;;;;;7.43;4.38;;;;;;;;;;5079166;28;20189;-66
2022/04/07 06:52:53;;;;;;;5.15;4.63;;;;;;;;;;5078880;28;20212;-65
2022/04/07 06:55:20;;;;;;;7.85;4.32;;;;;;;;;;5077711;28;20196;-65
2022/04/07 06:57:50;;;;;;;5.55;4.63;;;;;;;;;;5079043;28;20201;-65
2022/04/07 07:00:18;;;;;;;6.95;4.90;;;;;;;;;;5079047;28;20224;-65
2022/04/07 07:02:45;;;;;;;9.50;5.47;;;;;;;;;;5078512;28;20201;-66
2022/04/07 07:05:12;;;;;;;6.03;5.25;;;;;;;;;;5078824;28;20295;-66
2022/04/07 07:07:39;;;;;;;5.90;5.40;;;;;;;;;;5079250;28;20220;-66
2022/04/07 07:10:07;;;;;;;7.18;5.50;;;;;;;;;;5078319;28;20220;-65
2022/04/07 07:12:34;;;;;;;6.43;5.82;;;;;;;;;;5077503;28;20204;-65
2022/04/07 07:15:00;;;;;;;6.72;6.00;;;;;;;;;;5078440;28;20220;-65
2022/04/07 07:17:33;;;;;;;6.43;5.75;;;;;;;;;;5077290;28;20239;-66
2022/04/07 07:20:01;;;;;;;6.82;6.05;;;;;;;;;;5077583;28;20212;-65
2022/04/07 07:22:27;;;;;;;8.68;6.38;;;;;;;;;;5077362;28;20220;-66
2022/04/07 07:24:54;;;;;;;8.43;7.00;;;;;;;;;;5078378;28;20189;-66
2022/04/07 07:27:22;;;;;;;10.55;7.20;;;;;;;;;;5077166;28;20200;-65
2022/04/07 07:29:49;;;;;;;8.30;6.38;;;;;;;;;;5078053;28;20224;-65
2022/04/07 07:32:15;;;;;;;7.10;6.40;;;;;;;;;;5076656;28;20435;-66
2022/04/07 07:34:42;;;;;;;7.05;6.05;;;;;;;;;;5077936;28;20660;-66
2022/04/07 07:37:08;;;;;;;8.00;6.10;;;;;;;;;;5075683;28;20497;-67
2022/04/07 07:39:35;;;;;;;10.20;6.60;;;;;;;;;;5077811;28;20527;-67
2022/04/07 07:42:03;;;;;;;7.13;6.47;;;;;;;;;;5076142;28;20434;-67
2022/04/07 07:44:31;;;;;;;7.25;6.20;;;;;;;;;;5075840;28;20431;-67
2022/04/07 07:46:58;;;;;;;6.93;6.15;;;;;;;;;;5078371;28;20203;-66
2022/04/07 07:49:24;;;;;;;8.45;6.50;;;;;;;;;;5077440;28;20477;-65
2022/04/07 07:51:51;;;;;;;8.25;5.63;;;;;;;;;;5076737;28;20862;-66
2022/04/07 07:54:18;;;;;;;8.27;6.07;;;;;;;;;;5077873;28;20209;-65
2022/04/07 07:56:45;;;;;;;8.70;5.88;;;;;;;;;;5078620;28;20264;-65
2022/04/07 07:59:12;;;;;;;6.45;5.72;;;;;;;;;;5077319;28;20592;-65
2022/04/07 08:01:40;;;;;;;6.28;5.65;;;;;;;;;;5077329;28;20208;-65
2022/04/07 08:04:07;;;;;;;7.00;5.72;;;;;;;;;;5077153;28;20598;-65
2022/04/07 08:06:34;;;;;;;9.02;5.65;;;;;;;;;;5077592;28;20514;-65
2022/04/07 08:09:01;;;;;;;6.38;5.78;;;;;;;;;;5075992;28;20228;-65
2022/04/07 08:11:28;;;;;;;8.30;5.43;;;;;;;;;;5077071;28;20506;-66
2022/04/07 08:13:54;;;;;;;6.57;5.45;;;;;;;;;;5077079;28;20300;-65
2022/04/07 08:16:21;;;;;;;6.43;5.85;;;;;;;;;;5076772;28;20201;-65
2022/04/07 08:18:49;;;;;;;9.77;6.20;;;;;;;;;;5076548;28;20258;-65
2022/04/07 08:21:16;;;;;;;6.93;5.57;;;;;;;;;;5077043;28;20212;-66
2022/04/07 08:23:42;;;;;;;7.97;6.13;;;;;;;;;;5077750;28;20181;-68
2022/04/07 08:26:09;;;;;;;10.20;6.90;;;;;;;;;;5078073;28;20186;-68
2022/04/07 08:28:35;;;;;;;8.07;6.65;;;;;;;;;;5077137;28;20204;-65
2022/04/07 08:31:02;;;;;;;10.10;6.95;;;;;;;;;;5076660;28;20193;-65
2022/04/07 08:33:29;;;;;;;9.60;6.13;;;;;;;;;;5076650;28;20205;-66
2022/04/07 08:35:57;;;;;;;6.80;6.15;;;;;;;;;;5075818;28;20259;-66
2022/04/07 08:38:23;;;;;;;6.68;5.93;;;;;;;;;;5076790;28;20239;-66
2022/04/07 08:40:50;;;;;;;7.53;6.20;;;;;;;;;;5076457;28;20201;-67
2022/04/07 08:43:17;;;;;;;8.32;5.93;;;;;;;;;;5077053;28;20177;-67
2022/04/07 08:45:44;;;;;;;5.90;5.30;;;;;;;;;;5076314;28;20240;-66
2022/04/07 08:48:11;;;;;;;9.27;6.05;;;;;;;;;;5076770;28;20225;-66
2022/04/07 08:50:39;;;;;;;6.82;6.13;;;;;;;;;;5075080;28;20428;-68
2022/04/07 08:53:08;;;;;;;7.95;5.70;;;;;;;;;;5075773;28;20207;-67
2022/04/07 08:55:34;;;;;;;8.13;5.47;;;;;;;;;;5075286;28;20287;-67
2022/04/07 08:58:01;;;;;;;6.68;5.20;;;;;;;;;;5075549;28;20214;-67
2022/04/07 09:00:28;;;;;;;5.25;4.75;;;;;;;;;;5076605;28;20517;-67
2022/04/07 09:02:54;;;;;;;7.40;5.55;;;;;;;;;;5076321;28;20191;-67
2022/04/07 09:05:23;;;;;;;11.65;8.02;;;;;;;;;;5076348;28;20276;-67
2022/04/07 09:07:50;;;;;;;7.65;5.78;;;;;;;;;;5075646;28;20225;-67
2022/04/07 09:10:20;;;;;;;6.43;4.90;;;;;;;;;;5075334;28;20236;-67
2022/04/07 09:12:47;;;;;;;8.77;5.45;;;;;;;;;;5075133;28;20205;-66
2022/04/07 09:15:14;;;;;;;9.77;8.60;;;;;;;;;;5075894;28;20247;-66
2022/04/07 09:17:51;;;;;;;7.75;6.10;;;;;;;;;;5076301;28;20280;-67
2022/04/07 09:20:18;;;;;;;8.02;6.20;;;;;;;;;;5075732;28;20201;-65
2022/04/07 09:22:44;;;;;;;7.05;6.00;;;;;;;;;;5076274;28;20221;-65
2022/04/07 09:25:13;;;;;;;9.00;7.10;;;;;;;;;;5075928;28;20223;-66
2022/04/07 09:27:41;;;;;;;7.28;6.45;;;;;;;;;;5076190;28;20177;-66
2022/04/07 09:30:10;;;;;;;9.07;6.80;;;;;;;;;;5076187;28;20609;-65
2022/04/07 09:32:41;;;;;;;9.68;7.07;;;;;;;;;;5076342;28;20196;-66
2022/04/07 09:35:08;;;;;;;7.05;6.35;;;;;;;;;;5076068;28;20205;-67
2022/04/07 09:37:36;;;;;;;7.28;6.63;;;;;;;;;;5075709;28;20703;-67
2022/04/07 09:40:04;;;;;;;9.02;7.45;;;;;;;;;;5075746;28;20189;-67
2022/04/07 09:42:33;;;;;;;8.15;7.35;;;;;;;;;;5075561;28;20397;-67
2022/04/07 09:45:02;;;;;;;8.32;7.40;;;;;;;;;;5074993;28;20197;-67
2022/04/07 09:47:36;;;;;;;8.77;7.93;;;;;;;;;;5076340;28;20224;-67
2022/04/07 09:50:02;;;;;;;9.77;8.77;;;;;;;;;;5075485;28;20259;-67
2022/04/07 09:52:29;;;;;;;11.85;8.80;;;;;;;;;;5075741;28;20556;-67
2022/04/07 09:55:00;;;;;;;9.23;7.47;;;;;;;;;;5076187;28;20231;-67
2022/04/07 09:57:28;;;;;;;10.50;6.45;;;;;;;;;;5075544;28;20204;-67
2022/04/07 09:59:55;;;;;;;12.90;5.43;;;;;;;;;;5075499;28;20225;-67
2022/04/07 10:02:23;;;;;;;9.85;5.43;;;;;;;;;;5074777;28;20225;-66
2022/04/07 10:04:50;;;;;;;8.63;4.72;;;;;;;;;;5075684;28;20217;-66
2022/04/07 10:07:17;;;;;;;9.05;5.80;;;;;;;;;;5074948;28;20197;-66
2022/04/07 10:09:46;;;;;;;8.63;6.78;;;;;;;;;;5074824;28;20232;-65
2022/04/07 10:12:13;;;;;;;9.95;7.28;;;;;;;;;;5075679;28;20250;-67
2022/04/07 10:14:41;;;;;;;8.95;6.85;;;;;;;;;;5075414;28;20300;-67
2022/04/07 10:17:10;;;;;;;9.02;6.82;;;;;;;;;;5074371;28;20197;-74
2022/04/07 10:19:43;;;;;;;7.68;6.85;;;;;;;;;;5074800;28;20209;-67
2022/04/07 10:22:24;;;;;;;8.20;7.40;;;;;;;;;;5074562;28;20235;-67
2022/04/07 10:24:52;;;;;;;8.20;7.38;;;;;;;;;;5074081;28;20609;-66
2022/04/07 10:27:20;;;;;;;8.25;7.40;;;;;;;;;;5075245;28;20191;-66
2022/04/07 10:30:01;;;;;;;9.25;7.97;;;;;;;;;;5075393;28;20224;-66
2022/04/07 10:32:34;;;;;;;8.88;7.82;;;;;;;;;;5074923;28;20617;-67
2022/04/07 10:35:03;;;;;;;8.90;7.40;;;;;;;;;;5075156;28;20216;-67
2022/04/07 10:37:30;;;;;;;9.02;6.95;;;;;;;;;;5074894;28;20237;-67
2022/04/07 10:39:57;;;;;;;7.63;6.80;;;;;;;;;;5074248;28;20643;-67
2022/04/07 10:42:39;;;;;;;7.90;7.20;;;;;;;;;;5074252;28;20215;-67
2022/04/07 10:45:06;;;;;;;8.50;7.57;;;;;;;;;;5074789;28;20228;-66
2022/04/07 10:47:33;;;;;;;9.13;7.50;;;;;;;;;;5075183;28;20199;-66
2022/04/07 10:50:00;;;;;;;8.02;6.97;;;;;;;;;;5075272;28;20203;-67
2022/04/07 10:52:28;;;;;;;9.07;6.60;;;;;;;;;;5074131;28;20200;-67
2022/04/07 10:55:10;;;;;;;7.57;6.80;;;;;;;;;;5074699;28;20240;-67
2022/04/07 10:57:37;;;;;;;8.73;7.80;;;;;;;;;;5074286;28;20196;-66
2022/04/07 11:00:04;;;;;;;10.55;7.00;;;;;;;;;;5075458;28;20217;-66
2022/04/07 11:02:32;;;;;;;8.75;7.78;;;;;;;;;;5074181;28;20204;-66
2022/04/07 11:05:04;;;;;;;7.93;7.18;;;;;;;;;;5074842;28;20186;-67
2022/04/07 11:07:50;;;;;;;7.18;6.47;;;;;;;;;;5074774;28;20181;-67
2022/04/07 11:10:17;;;;;;;7.32;5.50;;;;;;;;;;5074703;28;20208;-66
2022/04/07 11:12:44;;;;;;;6.70;5.60;;;;;;;;;;5073818;28;20205;-66
2022/04/07 11:15:18;;;;;;;5.28;4.78;;;;;;;;;;5074561;28;20213;-66
2022/04/07 11:17:49;;;;;;;6.68;4.70;;;;;;;;;;5076308;28;20229;-66
2022/04/07 11:20:16;;;;;;;9.40;5.28;;;;;;;;;;5077027;28;20219;-66
2022/04/07 11:22:48;;;;;;;7.18;5.00;;;;;;;;;;5078663;28;20202;-66
2022/04/07 11:25:15;;;;;;;8.00;5.03;;;;;;;;;;5078289;28;20185;-67
2022/04/07 11:27:45;;;;;;;6.95;5.18;;;;;;;;;;5077412;28;20530;-66
2022/04/07 11:30:12;;;;;;;7.82;5.50;;;;;;;;;;5078585;28;20185;-66
2022/04/07 11:32:41;;;;;;;6.10;5.50;;;;;;;;;;5078305;28;20216;-66
2022/04/07 11:35:14;;;;;;;6.18;5.05;;;;;;;;;;5077799;28;20270;-67
2022/04/07 11:37:41;;;;;;;7.25;5.20;;;;;;;;;;5078279;28;20252;-66
2022/04/07 11:40:10;;;;;;;7.75;5.53;;;;;;;;;;5078033;28;20192;-68
2022/04/07 11:42:37;;;;;;;6.28;5.55;;;;;;;;;;5077956;28;20189;-68
2022/04/07 11:45:04;;;;;;;8.38;5.65;;;;;;;;;;5077415;28;20189;-68
2022/04/07 11:47:34;;;;;;;7.35;5.70;;;;;;;;;;5078071;28;20199;-68
2022/04/07 11:50:02;;;;;;;8.35;5.03;;;;;;;;;;5077974;28;20254;-68
2022/04/07 11:52:29;;;;;;;7.10;5.38;;;;;;;;;;5077461;28;20442;-68
2022/04/07 11:54:56;;;;;;;8.23;4.78;;;;;;;;;;5077957;28;20274;-66
2022/04/07 11:57:25;;;;;;;6.72;4.90;;;;;;;;;;5077699;28;20227;-67
2022/04/07 11:59:55;;;;;;;7.70;5.20;;;;;;;;;;5077630;28;20193;-67
2022/04/07 12:02:22;;;;;;;9.60;5.32;;;;;;;;;;5077524;28;20275;-67
2022/04/07 12:04:54;;;;;;;8.93;6.07;;;;;;;;;;5076925;28;20193;-67
2022/04/07 12:07:21;;;;;;;10.65;6.72;;;;;;;;;;5076909;28;20197;-67
2022/04/07 12:09:48;;;;;;;10.15;5.70;;;;;;;;;;5077704;28;20197;-67
2022/04/07 12:12:15;;;;;;;9.40;5.85;;;;;;;;;;5077487;28;20196;-66
2022/04/07 12:14:43;;;;;;;10.10;6.32;;;;;;;;;;5077618;28;20251;-66
2022/04/07 12:17:10;;;;;;;10.52;6.07;;;;;;;;;;5077304;28;20186;-66
2022/04/07 12:19:43;;;;;;;8.57;5.20;;;;;;;;;;5077225;28;20503;-67
2022/04/07 12:22:10;;;;;;;12.13;5.90;;;;;;;;;;5077297;28;20192;-67
2022/04/07 12:24:36;;;;;;;9.50;5.43;;;;;;;;;;5077072;28;20620;-66
2022/04/07 12:27:04;;;;;;;8.35;5.97;;;;;;;;;;5077122;28;20275;-66
2022/04/07 12:29:31;;;;;;;12.02;6.47;;;;;;;;;;5075773;28;20205;-66
2022/04/07 12:32:00;;;;;;;10.60;6.40;;;;;;;;;;5077248;28;20511;-66
2022/04/07 12:34:27;;;;;;;11.07;7.40;;;;;;;;;;5076101;28;20209;-66
2022/04/07 12:36:54;;;;;;;11.98;8.43;;;;;;;;;;5076708;28;20233;-66
2022/04/07 12:39:21;;;;;;;9.13;7.40;;;;;;;;;;5076101;28;20196;-66
2022/04/07 12:41:50;;;;;;;9.15;7.43;;;;;;;;;;5076169;28;20193;-66
2022/04/07 12:44:19;;;;;;;8.40;7.43;;;;;;;;;;5076049;28;20203;-66
2022/04/07 12:46:47;;;;;;;9.18;7.35;;;;;;;;;;5076548;28;20194;-66
2022/04/07 12:49:22;;;;;;;9.55;7.32;;;;;;;;;;5075809;28;20609;-66
2022/04/07 12:52:00;;;;;;;11.20;6.97;;;;;;;;;;5076823;28;20227;-66
2022/04/07 12:54:26;;;;;;;9.52;8.10;;;;;;;;;;5076109;28;20213;-67
2022/04/07 12:57:07;;;;;;;10.75;8.35;;;;;;;;;;5075706;28;20208;-67
2022/04/07 12:59:33;;;;;;;13.13;8.70;;;;;;;;;;5076521;28;20193;-67
2022/04/07 13:02:00;;;;;;;12.43;8.20;;;;;;;;;;5075248;28;20688;-66
2022/04/07 13:04:41;;;;;;;11.70;8.13;;;;;;;;;;5076460;28;20193;-66
2022/04/07 13:07:10;;;;;;;11.65;8.68;;;;;;;;;;5074891;28;20270;-66
2022/04/07 13:09:37;;;;;;;12.43;8.10;;;;;;;;;;5076563;28;20248;-66
2022/04/07 13:12:03;;;;;;;14.40;10.02;;;;;;;;;;5074873;28;20467;-67
2022/04/07 13:14:31;;;;;;;10.82;8.60;;;;;;;;;;5076205;28;20186;-67
2022/04/07 13:16:58;;;;;;;11.93;7.68;;;;;;;;;;5074904;28;20247;-67
2022/04/07 13:19:25;;;;;;;12.45;8.60;;;;;;;;;;5076124;28;20213;-66
2022/04/07 13:21:51;;;;;;;14.25;9.88;;;;;;;;;;5075778;28;20201;-66
2022/04/07 13:24:21;;;;;;;13.18;8.88;;;;;;;;;;5076276;28;20188;-66
2022/04/07 13:26:49;;;;;;;15.25;8.90;;;;;;;;;;5076147;28;20213;-67
2022/04/07 13:29:16;;;;;;;11.23;8.13;;;;;;;;;;5075962;28;20190;-67
2022/04/07 13:31:42;;;;;;;10.90;7.85;;;;;;;;;;5076078;28;20219;-67
2022/04/07 13:34:09;;;;;;;12.38;7.30;;;;;;;;;;5075887;28;20220;-67
2022/04/07 13:36:37;;;;;;;10.13;6.47;;;;;;;;;;5075314;28;20254;-67
2022/04/07 13:39:03;;;;;;;12.00;8.13;;;;;;;;;;5075330;28;20197;-66
2022/04/07 13:41:32;;;;;;;14.95;7.45;;;;;;;;;;5074570;28;20208;-67
2022/04/07 13:43:59;;;;;;;10.90;6.43;;;;;;;;;;5076380;28;20207;-66
2022/04/07 13:46:25;;;;;;;9.68;7.28;;;;;;;;;;5076273;28;20192;-67
2022/04/07 13:48:52;;;;;;;11.05;7.72;;;;;;;;;;5074426;28;20438;-66
2022/04/07 13:51:19;;;;;;;11.25;7.22;;;;;;;;;;5075664;28;20284;-66
2022/04/07 13:53:46;;;;;;;11.13;6.75;;;;;;;;;;5075190;28;20211;-66
2022/04/07 13:56:12;;;;;;;10.07;6.60;;;;;;;;;;5074705;28;20259;-66
2022/04/07 13:58:40;;;;;;;12.95;7.38;;;;;;;;;;5074837;28;20262;-66
2022/04/07 14:01:09;;;;;;;13.80;8.35;;;;;;;;;;5074787;28;20205;-66
2022/04/07 14:03:35;;;;;;;12.68;8.02;;;;;;;;;;5074791;28;20193;-65
2022/04/07 14:06:02;;;;;;;9.35;7.43;;;;;;;;;;5074641;28;20221;-66
2022/04/07 14:08:29;;;;;;;11.52;8.75;;;;;;;;;;5075042;28;20207;-66
2022/04/07 14:10:56;;;;;;;12.50;9.13;;;;;;;;;;5074708;28;20209;-65
2022/04/07 14:13:23;;;;;;;12.55;8.35;;;;;;;;;;5074243;28;20220;-66
2022/04/07 14:15:51;;;;;;;11.60;9.55;;;;;;;;;;5075410;28;20197;-66
2022/04/07 14:18:18;;;;;;;14.10;9.43;;;;;;;;;;5075314;28;20207;-66
2022/04/07 14:20:46;;;;;;;12.32;10.07;;;;;;;;;;5075006;28;20252;-66
2022/04/07 14:23:13;;;;;;;14.00;9.57;;;;;;;;;;5074551;28;20193;-66
2022/04/07 14:25:40;;;;;;;13.52;9.55;;;;;;;;;;5074464;28;20197;-66
2022/04/07 14:28:07;;;;;;;11.70;9.35;;;;;;;;;;5075123;28;20272;-66
2022/04/07 14:30:34;;;;;;;12.15;8.60;;;;;;;;;;5075470;28;20227;-67
2022/04/07 14:33:03;;;;;;;11.95;8.43;;;;;;;;;;5074519;28;20478;-66
2022/04/07 14:35:30;;;;;;;13.48;8.65;;;;;;;;;;5074101;28;20217;-66
2022/04/07 14:37:58;;;;;;;12.57;8.05;;;;;;;;;;5074114;28;20227;-66
2022/04/07 14:40:25;;;;;;;12.38;9.15;;;;;;;;;;5075472;28;20182;-66
2022/04/07 14:42:51;;;;;;;14.57;11.73;;;;;;;;;;5074130;28;20620;-66